Tiempo atmosférico en la estación meteorológica de Lleida, Lleida (192 m.)



Fecha
DESCASC
Temp. máxima en grados centígrados (hora)
DESCASC
Temp. mínima en grados centígrados (hora)
DESCASC
Temp. media en grados centígrados
DESCASC
Racha de viento máxima en m/sg (hora)
DESCASC
Velocidad máxima media en intervalos de 10 minutos(hora)
DESCASC
Precipitaciones diarias en mm
DESCASC
Precipitaciones de 00:00 a 06:00 en mm
DESCASC
Precipitaciones de 06:00 a 12:00 en mm
DESCASC
Precipitaciones de 12:00 a 18:00 en mm
DESCASC
Precipitaciones de 18:00 a 24:00 en mm
DESCASC
16-06-2019 31.2 (17:40) 14 (06:50) 22.6 6.94 (20:00) 3.89 (20:00) -- 0 0 -- 0
15-06-2019 29.2 (18:10) 14.8 (07:00) 22 10 (16:20) 5.56 (14:30) -- 0 -- 0 0
14-06-2019 29.4 (18:20) 14.2 (06:40) 21.8 8.89 (13:40) 5 (13:40) 0 0 0 0 0
13-06-2019 28.1 (16:30) 10.6 (00:00) 19.4 10 (20:00) 5.28 (17:20) 0 0 0 0 0
12-06-2019 24 (17:40) 6.9 (00:00) 15.5 5.56 (14:50) 3.06 (14:50) 0 0 0 0 0
11-06-2019 21 (19:40) 11.3 (00:00) 16.2 9.72 (20:00) 5.83 (20:10) -- 0.8 2.8 -- 0
10-06-2019 27.3 (16:40) 14.4 (00:00) 20.8 10.28 (13:50) 6.39 (18:00) 0 0 0 0 0
09-06-2019 30.5 (18:30) 15.4 (00:00) 22.9 6.11 (20:20) 3.33 (00:10) 0 0 0 0 0
08-06-2019 28.8 (17:00) 10.5 (00:00) 19.6 8.89 (18:40) 5.56 (17:50) -- 0 0 -- 0
07-06-2019 25.7 (17:30) 13.6 (00:00) 19.7 11.94 (10:50) 7.22 (10:50) 0 0 0 0 0
06-06-2019 26.3 (15:30) 10.7 (00:00) 18.5 11.94 (16:20) 6.39 (16:30) 0 0 0 0 0
05-06-2019 22.4 (16:30) 14.9 (00:00) 18.6 16.11 (18:50) 9.17 (18:50) 0.2 0 0 0.2 0
04-06-2019 32.5 (17:40) 15.3 (00:00) 23.9 9.72 (18:30) 5.28 (18:50) -- 0 0 -- 0
03-06-2019 32.4 (15:30) 14.5 (00:00) 23.5 9.17 (17:40) 5.28 (16:20) -- 0 -- 0 0
02-06-2019 33.5 (16:40) 14.1 (00:00) 23.8 9.17 (18:00) 6.11 (17:50) -- 0 0 -- 0
01-06-2019 32.3 (17:30) 13.8 (00:00) 23 8.33 (17:50) 4.72 (19:30) -- 0 0 0 --
31-05-2019 30.7 (17:00) 12.6 (00:00) 21.7 7.78 (17:20) 4.72 (19:50) -- 0 0 0 --
30-05-2019 28.8 (19:20) 9.4 (00:00) 19.1 6.11 (15:40) 3.33 (15:40) -- 0 0 0 --
29-05-2019 26 (19:10) 8.9 (00:00) 17.4 11.39 (00:10) 6.39 (01:00) -- 0 0 0 --
28-05-2019 24.6 (16:20) 11.3 (00:00) 18 16.67 (20:30) 9.72 (20:30) -- 0 0 0 --
27-05-2019 27.3 (18:50) 10.5 (00:00) 18.9 9.17 (20:30) 5.83 (21:10) 0 0 0 0 0
26-05-2019 26.4 (17:40) 10.5 (00:00) 18.4 -- (--) -- (--) -- -- 0 0 0
25-05-2019 23.9 (15:30) 12.8 (00:00) 18.3 6.94 (23:50) 3.89 (23:30) -- -- 0 0 0
24-05-2019 20.4 (00:00) 14.7 (00:00) 17.5 5.56 (10:10) 3.61 (10:10) 21 4.4 14.8 1.8 0
23-05-2019 -- (--) -- (--) -- -- (--) -- (--) -- -- 0 0 --
22-05-2019 27.6 (18:40) 10 (00:00) 18.8 6.67 (15:30) 3.33 (18:00) -- 0 0 0 --

Gráficas

Temp. máximas Temp. mínimas Temp. medias Precipitaciones Rachas de viento máximas Velocidades máximas media en intervalos de 10 minutos

Datos horarios

Fecha y hora oficial Temperatura (ºC) Velocidad del viento (km/h) Dirección del viento Racha (km/h) Dirección de racha Precipitación (mm) Presión (hPa) Tendencia (hPa) Humedad (%)
2019-06-20 23:00:00 20.8 5 Nordeste 9 Nordeste 0 990.2 1.4 75
2019-06-20 22:00:00 21.9 6 Norte 15 Norte 0 989.9 -- 71
2019-06-20 21:00:00 23.7 8 Norte 14 Norte 0 988.6 1.2 61
2019-06-20 20:00:00 23.3 4 Oeste 29 Sudoeste 0 988.8 0.9 64
2019-06-20 19:00:00 25.9 12 Sudoeste 26 Sur 0 -- -- 46
2019-06-20 18:00:00 28.3 15 Sudoeste 34 Sudoeste 0 987.4 -1.1 44
2019-06-20 17:00:00 28.9 22 Sur 37 Sudoeste 0 987.9 -1.4 41
2019-06-20 16:00:00 32.1 18 Sudoeste 32 Sudoeste 0 987.9 -2.1 34
2019-06-20 15:00:00 31.3 13 Sudoeste 24 Sudoeste 0 988.5 -1.8 36
2019-06-20 14:00:00 29.7 6 Oeste 19 Noroeste 0 989.3 -1.2 38
2019-06-20 13:00:00 28.8 7 Oeste 18 Sudoeste 0 990 -0.7 41
2019-06-20 12:00:00 26.8 7 Sudoeste 15 Sudoeste 0 990.3 -0.3 46
2019-06-20 11:00:00 24.9 10 Sudoeste 16 Sudoeste 0 990.5 0.2 52
2019-06-20 10:00:00 24 8 Sur 18 Sudoeste 0 990.7 1 59
2019-06-20 09:00:00 22.5 9 Sur 13 Sur 0 990.6 1.4 64
2019-06-20 08:00:00 20.6 5 Oeste 10 Sudoeste 0 990.3 1.4 68
2019-06-20 07:00:00 18.7 3 Norte 7 Sudoeste 0 989.7 1.2 73
2019-06-20 06:00:00 19.8 2 Nordeste 9 Nordeste 0 989.2 0.4 68
2019-06-20 05:00:00 20.8 5 Norte 14 Este 0 988.9 0.2 64
2019-06-20 04:00:00 20.7 6 Este 14 Nordeste 0 988.5 0.2 65
2019-06-20 03:00:00 21.7 5 Norte 17 Norte 0 988.8 0.6 61
2019-06-20 02:00:00 22.3 12 Norte 19 Norte 0 988.7 0.6 59
2019-06-20 01:00:00 23.3 2 Norte 13 Oeste 0 988.3 0.7 54
2019-06-20 00:00:00 24.5 6 Sudoeste 10 Sudoeste 0 988.2 1.1 47
2019-06-19 23:00:00 25.5 5 Sudoeste 11 Sur 0 988.1 1.3 45
2019-06-19 22:00:00 26.7 6 Sudoeste 12 Sudoeste 0 987.6 0.9 46
2019-06-19 21:00:00 30 4 Oeste 12 Noroeste 0 987.1 0.1 31
2019-06-19 20:00:00 32.3 9 Noroeste 18 Noroeste 0 986.8 -0.6 25
2019-06-19 19:00:00 32.5 9 Noroeste 23 Noroeste 0 986.7 -1.4 24
2019-06-19 18:00:00 33.1 9 Noroeste 20 Noroeste 0 987 -1.8 23
2019-06-19 17:00:00 32.9 6 Noroeste 17 Oeste 0 987.4 -2.1 24
2019-06-19 16:00:00 32.7 5 Norte 22 Noroeste 0 988.1 -1.7 25
2019-06-19 15:00:00 32.1 8 Oeste 24 Sudoeste 0 988.8 -1.1 26
2019-06-19 14:00:00 30.2 11 Oeste 20 Sudoeste 0 989.5 -0.8 30
2019-06-19 13:00:00 28.4 8 Noroeste 16 Sudoeste 0 989.8 -0.5 33
2019-06-19 12:00:00 26.7 6 Sudoeste 15 Oeste 0 989.9 -0.5 42
2019-06-19 11:00:00 25.1 7 Sudoeste 13 Oeste 0 990.3 0.4 41
2019-06-19 10:00:00 23.1 4 Sudoeste 9 Sudoeste 0 990.3 0.5 43
2019-06-19 09:00:00 20.4 4 Norte 10 Norte 0 990.4 0.9 48
2019-06-19 08:00:00 18.2 5 Norte 9 Norte 0 989.9 0.6 55
2019-06-19 07:00:00 15.7 6 Norte 10 Norte 0 989.8 0.7 64
2019-06-19 06:00:00 16.1 6 Nordeste 12 Nordeste 0 989.5 0.3 61
2019-06-19 05:00:00 17.2 7 Nordeste 15 Nordeste 0 989.3 0 56
2019-06-19 04:00:00 17.7 9 Nordeste 14 Norte 0 989.1 -0.2 53
2019-06-19 03:00:00 18 8 Nordeste 19 Norte 0 989.2 -0.2 54
2019-06-19 02:00:00 18.3 10 Nordeste 18 Nordeste 0 989.3 0.3 54
2019-06-19 01:00:00 19.3 7 Nordeste 21 Nordeste 0 989.3 0.7 46
2019-06-19 00:00:00 21.2 13 Este 23 Este 0 989.4 1.2 37
2019-06-18 23:00:00 22.9 11 Norte 19 Nordeste 0 989 1.3 32
2019-06-18 22:00:00 25.5 9 Este 36 Sudeste 0 988.6 1.1 25
2019-06-18 21:00:00 26.4 17 Sudeste 32 Sur 0 988.2 0.8 22
2019-06-18 20:00:00 28.8 21 Sur 39 Sur 0 987.7 -0.2 21
2019-06-18 19:00:00 31 19 Sudeste 43 Sudeste 0 987.5 -0.4 22
2019-06-18 18:00:00 32.9 21 Sur 36 Sudeste 0 987.4 -0.9 20
2019-06-18 17:00:00 34 16 Sudeste 39 Sudeste 0 987.9 -1.1 19
2019-06-18 16:00:00 35.2 14 Sur 37 Sur 0 987.9 -1.8 20
2019-06-18 15:00:00 34.9 14 Sur 30 Sudeste 0 988.3 -2 21
2019-06-18 14:00:00 32.8 8 Este 23 Sudeste 0 989 -1.6 22
2019-06-18 13:00:00 31.2 10 Este 21 Nordeste 0 989.7 -0.9 25
2019-06-18 12:00:00 29.3 11 Este 20 Nordeste 0 990.3 -0.8 27
2019-06-18 11:00:00 26 9 Nordeste 21 Nordeste 0 990.6 -0.6 35
2019-06-18 10:00:00 22.6 10 Nordeste 19 Nordeste 0 990.6 -0.3 47
2019-06-18 09:00:00 22.1 12 Nordeste 20 Nordeste 0 991.1 0.4 44
2019-06-18 08:00:00 18.1 7 Nordeste 14 Nordeste 0 991.2 0.2 56
2019-06-18 07:00:00 16.7 10 Nordeste 18 Norte 0 990.9 -0.4 59
2019-06-18 06:00:00 16.7 8 Nordeste 17 Nordeste 0 990.7 -0.9 59
2019-06-18 05:00:00 16.7 9 Nordeste 17 Este 0 991 -1 57
2019-06-18 04:00:00 17.6 9 Nordeste 18 Nordeste 0 991.3 -0.7 54
2019-06-18 03:00:00 18.3 10 Nordeste 22 Nordeste 0 991.6 -0.2 53
2019-06-18 02:00:00 18.8 11 Nordeste 19 Nordeste 0 992 0.7 53
2019-06-18 01:00:00 19.7 10 Nordeste 17 Nordeste 0 992 1.6 54
2019-06-18 00:00:00 21.4 6 Nordeste 12 Nordeste 0 991.8 2 48
2019-06-17 23:00:00 23.2 6 Este 22 Sudeste 0 991.3 1.9 45
2019-06-17 22:00:00 24.4 10 Sur 23 Sur 0 990.4 1.6 43
2019-06-17 21:00:00 26.8 12 Sur 35 Sur 0 989.8 0.8 41
2019-06-17 20:00:00 30.2 18 Sur 36 Sur 0 989.4 -0.3 35
2019-06-17 19:00:00 34.1 12 Sur 26 Sur 0 988.8 -1.5 29
2019-06-17 18:00:00 35 5 Oeste 14 Noroeste 0 989 -2 15
2019-06-17 17:00:00 34.4 8 Sudoeste 14 Oeste 0 989.7 -2.1 18
2019-06-17 16:00:00 33.7 4 Sudoeste 14 Sudeste 0 990.3 -2.2 16
2019-06-17 15:00:00 32.8 7 Sudoeste 13 Sudoeste 0 991 -1.9 17
2019-06-17 14:00:00 31 8 Sur 13 Sudoeste 0 991.8 -1.6 25
2019-06-17 13:00:00 29.3 6 Sudeste 13 Sudoeste 0 992.5 -1.2 31
2019-06-17 12:00:00 27.4 4 Sudeste 10 Sudeste 0 992.9 -0.9 35
2019-06-17 11:00:00 24.7 4 Este 15 Norte 0 993.4 -0.4 41
2019-06-17 10:00:00 22.8 6 Este 10 Este 0 993.7 0.5 48
2019-06-17 09:00:00 19.6 5 Nordeste 11 Nordeste 0 993.8 0.8 58
2019-06-17 08:00:00 17 4 Nordeste 10 Nordeste 0 993.8 0.7 70
2019-06-17 07:00:00 14.2 6 Nordeste 12 Nordeste 0 993.2 0 79
2019-06-17 06:00:00 14.8 9 Nordeste 14 Nordeste 0 993 -0.5 76
2019-06-17 05:00:00 15.4 9 Nordeste 14 Nordeste 0 993.1 -0.5 75
2019-06-17 04:00:00 15.8 8 Norte 12 Norte 0 993.2 -0.3 74
2019-06-17 03:00:00 16.8 8 Norte 11 Norte 0 993.5 -0.2 71
2019-06-17 02:00:00 17.5 4 Nordeste 9 Nordeste 0 993.6 0.2 67
2019-06-17 01:00:00 18.7 7 Nordeste 10 Norte 0 993.5 0.7 64
2019-06-17 00:00:00 20.2 6 Nordeste 10 Oeste 0 993.7 1.3 58
2019-06-16 23:00:00 21.5 6 Sudoeste 16 Sudoeste 0 993.4 -- 52
2019-06-16 22:00:00 22.8 10 Sudoeste 23 Sudoeste 0 992.8 0.6 50
2019-06-16 21:00:00 25.1 7 Sur 21 Sur 0 992.4 0 45
2019-06-16 20:00:00 27.3 14 Sur 25 Sudoeste 0 -- -- 39
2019-06-16 19:00:00 30 7 Sudoeste 13 Noroeste 0 992.2 -1.6 31
2019-06-16 18:00:00 30.6 8 Noroeste -- -- -- 992.4 -2.3 20
2019-06-16 17:00:00 30.2 5 Norte 14 Oeste 0 993 -2.7 20
2019-06-16 16:00:00 29.7 6 Sur 17 Sudoeste 0 993.8 -2.6 24
2019-06-16 15:00:00 29 9 Sudoeste 14 Sudoeste 0 994.7 -2.2 26
2019-06-16 14:00:00 27.4 7 Sudoeste 17 Sudoeste 0 995.7 -1.8 28
2019-06-16 13:00:00 25.9 6 Sudoeste 17 Sudoeste 0 996.4 -1.2 35
2019-06-16 12:00:00 24.2 7 Sudoeste 15 Sudoeste 0 996.9 -0.6 41
2019-06-16 11:00:00 22.7 6 Sudoeste 14 Sudoeste 0 997.5 0.2 53
2019-06-16 10:00:00 20.5 4 Sudoeste 10 Nordeste 0 997.6 0.7 62
2019-06-16 09:00:00 18.2 6 Nordeste 12 Nordeste 0 997.5 0.8 71
2019-06-16 08:00:00 16.2 6 Nordeste 10 Nordeste 0 997.3 0.6 79
2019-06-16 07:00:00 14.1 5 Nordeste 9 Nordeste 0 996.9 0 89
2019-06-16 06:00:00 14.5 5 Nordeste 8 Nordeste 0 996.7 -0.2 87
2019-06-16 05:00:00 14.7 5 Nordeste 8 Nordeste 0 996.7 0.1 85
2019-06-16 04:00:00 15.2 6 Norte 10 Nordeste 0 996.9 0.7 81
2019-06-16 03:00:00 15.8 6 Nordeste 14 Este 0 996.9 1.4 75
2019-06-16 02:00:00 17.2 7 Oeste 13 Sur 0 996.6 2 75
2019-06-16 01:00:00 17.8 9 Sudoeste 15 Sudoeste 0 996.2 2.6 65
2019-06-16 00:00:00 19.2 7 Sur 12 Sudoeste 0 995.5 2.3 44
2019-06-15 23:00:00 21.6 7 Oeste 14 Oeste 0 994.6 2 35
2019-06-15 22:00:00 22.9 8 Oeste 13 Oeste 0 993.6 1.2 30
2019-06-15 21:00:00 25.6 10 Oeste 21 Noroeste 0 993.2 0.8 23
2019-06-15 20:00:00 28 13 Oeste 28 Oeste 0 992.6 0 18
2019-06-15 19:00:00 28.8 12 Oeste 31 Oeste 0 992.4 -0.3 20
2019-06-15 18:00:00 29.1 17 Oeste 33 Oeste 0 992.4 -0.6 21
2019-06-15 17:00:00 28.9 16 Oeste 36 Noroeste 0 992.6 -0.8 23
2019-06-15 16:00:00 28.3 13 Oeste 31 Oeste 0 992.7 -1 23
2019-06-15 15:00:00 27.7 16 Oeste 35 Oeste 0 993 -0.9 24
2019-06-15 14:00:00 26.5 16 Oeste 30 Oeste 0 993.4 -0.8 30
2019-06-15 13:00:00 24.5 15 Oeste 28 Sudoeste 0 993.7 -0.6 40
2019-06-15 12:00:00 22.9 14 Oeste 31 Sudoeste 0 993.9 0 47
2019-06-15 11:00:00 20.9 14 Oeste 26 Oeste 0 994.2 1.1 53
2019-06-15 10:00:00 19 15 Sudoeste -- -- -- 994.3 1.7 59
2019-06-15 09:00:00 17.9 12 Oeste 22 Oeste 0 993.9 2 66
2019-06-15 08:00:00 15.7 9 Sudoeste 16 Sudoeste 0 993.1 2.1 77
2019-06-15 07:00:00 14.8 9 Oeste 21 Oeste 0 992.6 2.4 80
2019-06-15 06:00:00 15.9 8 Sudoeste 25 Oeste 0 991.9 2.2 75
2019-06-15 05:00:00 15.1 4 Sudoeste 8 Sudoeste 0 991 1.9 82
2019-06-15 04:00:00 16.4 4 Oeste 8 Sudoeste 0 990.2 1.3 77
2019-06-15 03:00:00 17.6 4 Oeste 9 Nordeste 0 989.7 1.2 72
2019-06-15 02:00:00 18.9 6 Norte 12 Nordeste 0 989.1 0.9 67
2019-06-15 01:00:00 19.3 9 Nordeste 15 Nordeste 0 988.9 1.6 67
2019-06-15 00:00:00 20.9 8 Nordeste 12 Nordeste 0 988.5 2.2 62
2019-06-14 23:00:00 22.1 5 Sur 13 Sudeste 0 988.2 2.4 57
2019-06-14 22:00:00 24.2 6 Sudeste 17 Sudeste 0 987.3 1.5 50
2019-06-14 21:00:00 26.4 6 Este 10 Este 0 986.3 0.4 39
2019-06-14 20:00:00 28.4 5 Nordeste 13 Nordeste 0 985.8 -0.4 33
2019-06-14 19:00:00 28.9 7 Sudeste 14 Sudoeste 0 985.8 -0.7 33
2019-06-14 18:00:00 29.1 7 Sudoeste 16 Oeste 0 985.9 -0.9 32
2019-06-14 17:00:00 28.4 6 Sudoeste 17 Sudoeste 0 986.2 -1.1 33
2019-06-14 16:00:00 26.9 8 Oeste 20 Oeste 0 986.5 -0.4 34
2019-06-14 15:00:00 24.4 10 Sudoeste 26 Sudoeste 0 986.8 -0.2 39
2019-06-14 14:00:00 24.6 14 Oeste 32 Oeste 0 987.3 0.8 38
2019-06-14 13:00:00 25.2 12 Sudoeste 26 Sur 0 986.9 -0.3 38
2019-06-14 12:00:00 22.4 10 Sur 22 Sur 0 987 -0.5 45
2019-06-14 11:00:00 21.8 12 Este 19 Este 0 986.5 -0.1 43
2019-06-14 10:00:00 19.2 4 Sur 12 Oeste 0 987.2 0.9 53
2019-06-14 09:00:00 16.4 8 Sudoeste 15 Sudoeste 0 987.5 1.6 61
2019-06-14 08:00:00 14.7 5 Oeste 15 Sudoeste 0 986.6 1.5 68
2019-06-14 07:00:00 14.2 9 Sudoeste 15 Oeste 0 986.3 -0.2 67
2019-06-14 06:00:00 14.5 9 Sudoeste 18 Sudoeste 0 985.9 -2 64
2019-06-14 05:00:00 15.6 2 Noroeste 12 Nordeste 0 985.1 -3.4 56
2019-06-14 04:00:00 15.9 5 Nordeste 13 Nordeste 0 986.5 -2.3 52
2019-06-14 03:00:00 15.8 8 Nordeste 15 Nordeste 0 987.9 -1.2 50
2019-06-14 02:00:00 16.9 10 Nordeste 21 Este 0 988.5 -0.1 44
2019-06-14 01:00:00 16.6 11 Nordeste 21 Nordeste 0 988.8 0.8 47
2019-06-14 00:00:00 17.7 11 Nordeste 19 Nordeste 0 989.1 1.5 44
2019-06-13 23:00:00 19.2 12 Nordeste 21 Este 0 988.6 1.3 49
2019-06-13 22:00:00 21.8 10 Este 24 Este 0 988 1 38
2019-06-13 21:00:00 23 17 Este 28 Este 0 987.6 0.5 33
2019-06-13 20:00:00 23.6 17 Este 36 Sudeste 0 987.3 0 33
2019-06-13 19:00:00 24.5 17 Este 27 Sudeste 0 987 -0.7 34
2019-06-13 18:00:00 24.5 16 Sur 34 Este 0 987.1 -- 31
2019-06-13 17:00:00 26.8 16 Este 26 Nordeste 0 987.3 -1.9 30
2019-06-13 16:00:00 27.6 8 Sudeste 25 Este 0 987.7 -2.5 34
2019-06-13 15:00:00 26.7 9 Este 27 Nordeste 0 -- -- 35
2019-06-13 14:00:00 25.6 11 Nordeste 33 Sur 0 989.2 -1.9 39
2019-06-13 13:00:00 24.6 8 Este 18 Sur 0 990.2 -0.8 42
2019-06-13 12:00:00 23.4 8 Este 21 Nordeste 0 990.8 -0.4 46
2019-06-13 11:00:00 22.1 9 Este 20 Este 0 991.1 0.3 48
2019-06-13 10:00:00 18.8 10 Nordeste 19 Nordeste 0 991 0.4 56
2019-06-13 09:00:00 15 10 Nordeste 18 Nordeste 0 991.2 0.6 69
2019-06-13 08:00:00 13.3 11 Nordeste 23 Nordeste 0 990.8 0.4 74
2019-06-13 07:00:00 10.9 12 Nordeste 19 Nordeste 0 990.6 0.1 80
2019-06-13 06:00:00 10.7 10 Nordeste 22 Nordeste 0 990.6 -0.2 77
2019-06-13 05:00:00 10.9 11 Nordeste 21 Nordeste 0 990.4 -0.6 76
2019-06-13 04:00:00 11.3 10 Nordeste 15 Nordeste 0 990.5 -0.7 76
2019-06-13 03:00:00 12.1 8 Nordeste 14 Nordeste 0 990.8 -0.3 72
2019-06-13 02:00:00 13.4 8 Nordeste 14 Nordeste 0 991 0.5 66
2019-06-13 01:00:00 14.4 6 Nordeste 12 Nordeste 0 991.2 1.5 60
2019-06-13 00:00:00 16.7 5 Nordeste 16 Sur 0 991.1 1.8 49
2019-06-12 23:00:00 16.7 6 Sur 15 Sur 0 990.5 1.4 42
2019-06-12 22:00:00 18.8 9 Sur 17 Sur 0 989.7 0.7 36
2019-06-12 21:00:00 21.5 5 Sudeste 11 Sudeste 0 989.3 -0.3 29
2019-06-12 20:00:00 22.9 8 Este 15 Nordeste 0 989.1 -1.1 26
2019-06-12 19:00:00 23.5 4 Este 16 Nordeste 0 989 -1.6 25
2019-06-12 18:00:00 23.4 8 Este 16 Nordeste 0 989.6 -1.6 26
2019-06-12 17:00:00 22.9 7 Este 18 Noroeste 0 990.2 -1.5 27
2019-06-12 16:00:00 23.2 6 Sudeste 18 Oeste 0 990.6 -1.7 25
2019-06-12 15:00:00 22.1 8 Noroeste 20 Oeste 0 991.2 -1.5 29
2019-06-12 14:00:00 21.3 10 Oeste 19 Norte 0 991.7 -1.2 29
2019-06-12 13:00:00 19.7 7 Oeste 17 Sudoeste 0 992.3 -0.6 34
2019-06-12 12:00:00 18.3 7 Oeste 16 Sudoeste 0 992.7 0.1 40
2019-06-12 11:00:00 16.2 9 Sudoeste 16 Sudoeste 0 992.9 0.9 51
2019-06-12 10:00:00 15.3 6 Sur 13 Sudeste 0 992.9 1.4 58
2019-06-12 09:00:00 12.8 6 Sur 10 Sur 0 992.6 1.5 68
2019-06-12 08:00:00 10 4 Sudoeste 8 Oeste 0 992 1.3 79
2019-06-12 07:00:00 7.2 5 Sudoeste 8 Noroeste 0 991.5 0.8 88
2019-06-12 06:00:00 7 3 Oeste 5 Sur 0 991.1 0.4 87
2019-06-12 05:00:00 7.7 3 Noroeste 17 Oeste 0 990.7 0.2 85
2019-06-12 04:00:00 8.7 10 Oeste 16 Oeste 0 990.7 0 82
2019-06-12 03:00:00 9.4 7 Oeste 11 Sudoeste 0 990.7 0.1 77
2019-06-12 02:00:00 10.1 6 Sudoeste 12 Oeste 0 990.5 0.4 73
2019-06-12 01:00:00 11.3 6 Sudoeste 18 Sudoeste 0 990.7 -- 66
2019-06-12 00:00:00 12.3 6 Sudoeste 17 Sudoeste 0 990.6 1.9 61
2019-06-11 23:00:00 13.3 13 Sudoeste 19 Oeste 0 990.1 2 59
2019-06-11 22:00:00 15.6 11 Oeste 35 Oeste 0 -- -- 49
2019-06-11 21:00:00 18 16 Oeste 35 Oeste 0 988.7 0.4 41
2019-06-11 20:00:00 20.4 19 Oeste 35 Oeste 0 988.1 -0.7 35
2019-06-11 19:00:00 20.6 16 Sudoeste 27 Sur 0 987.7 -1.7 41
2019-06-11 18:00:00 19 10 Sur 23 Sudoeste 0 988.3 -1.6 57
2019-06-11 17:00:00 18 13 Sudoeste 29 Sur 0 988.8 -1.5 62
2019-06-11 16:00:00 16.2 11 Sudoeste -- -- -- 989.4 -0.8 64
2019-06-11 15:00:00 15.3 10 Sudoeste 22 Oeste 0 989.9 -0.5 76
2019-06-11 14:00:00 13.9 12 Oeste 21 Oeste 0 990.3 0.3 80
2019-06-11 13:00:00 12.2 10 Oeste 17 Oeste 0 990.2 0.2 87
2019-06-11 12:00:00 12 9 Oeste 17 Oeste 0.4 990.4 0.8 89
2019-06-11 11:00:00 12.1 5 Oeste 12 Sudoeste 0.2 990 0.6 90
2019-06-11 10:00:00 11.7 5 Sudoeste 10 Sudoeste 0.2 990 1 88
2019-06-11 09:00:00 11.4 3 Sudoeste 14 Oeste 0.4 989.6 1 91
2019-06-11 08:00:00 11.4 6 Sudoeste 14 Sudoeste 0.8 989.4 0.4 91
2019-06-11 07:00:00 11.6 6 Sudoeste 21 Oeste 0.8 989 0.1 86
2019-06-11 06:00:00 12.1 9 Oeste 20 Sudoeste 0.8 988.6 -0.8 84
2019-06-11 05:00:00 13.4 14 Sur 22 Sur 0 989 -1 70
2019-06-11 04:00:00 14.9 10 Sudoeste 22 Sudoeste 0 988.9 -1.4 53
2019-06-11 03:00:00 15.5 8 Sur 12 Sur 0 989.4 -0.5 51
2019-06-11 02:00:00 16.5 5 Sudoeste 28 Oeste 0 990 0.5 42
2019-06-11 01:00:00 16.9 10 Sudoeste 16 Sudoeste 0 990.3 1.7 41
2019-06-11 00:00:00 16.9 7 Sudoeste 15 Sudoeste 0 989.9 2.1 42
2019-06-10 23:00:00 18.4 12 Sudoeste 32 Oeste 0 989.5 1.9 38
2019-06-10 22:00:00 20 18 Oeste 31 Oeste 0 988.6 0.9 34
2019-06-10 21:00:00 22.5 14 Oeste 32 Oeste 0 987.8 -0.2 27
2019-06-10 20:00:00 25 19 Oeste 28 Oeste 0 987.6 -0.5 28
2019-06-10 19:00:00 25.1 19 Oeste 36 Noroeste 0 987.7 -1 24
2019-06-10 18:00:00 26.5 23 Oeste 37 Oeste 0 988 -1.4 26
2019-06-10 17:00:00 27.2 19 Oeste 36 Noroeste 0 988.1 -2.2 28
2019-06-10 16:00:00 26.6 21 Oeste 32 Oeste 0 988.7 -2.1 30
2019-06-10 15:00:00 25.9 13 Oeste 30 Oeste 0 989.4 -2 35
2019-06-10 14:00:00 24.5 17 Oeste 37 Sudoeste 0 990.3 -1.5 36
2019-06-10 13:00:00 23.2 12 Sudoeste 26 Sudoeste 0 990.8 -1.1 42
2019-06-10 12:00:00 21.4 11 Sudoeste 25 Sudoeste 0 991.4 -0.4 47
2019-06-10 11:00:00 19.1 10 Sudoeste 24 Sudoeste 0 991.8 0.3 55
2019-06-10 10:00:00 18.3 11 Sudoeste 25 Sudoeste 0 991.9 1 57
2019-06-10 09:00:00 17 13 Sudoeste 23 Sudoeste 0 991.8 1.3 61
2019-06-10 08:00:00 14.7 11 Sudoeste 22 Sudoeste 0 991.5 1.1 72
2019-06-10 07:00:00 14.6 10 Sudoeste 22 Sudoeste 0 990.9 0.4 73
2019-06-10 06:00:00 14.5 9 Sudoeste 21 Sudoeste 0 990.5 -0.1 73
2019-06-10 05:00:00 15.2 15 Sudoeste 23 Sudoeste 0 990.4 -0.2 72
2019-06-10 04:00:00 15.9 10 Sudoeste 19 Sudoeste 0 990.5 -0.1 68
2019-06-10 03:00:00 15.3 6 Sudoeste 12 Sur 0 990.6 0.8 51
2019-06-10 02:00:00 16.4 6 Sudoeste 12 Sudeste 0 990.6 1.1 50
2019-06-10 01:00:00 18.4 0 Calma 15 Noroeste 0 990.6 2 41
2019-06-10 00:00:00 18.7 9 Norte 14 Nordeste 0 989.8 1.9 41
2019-06-09 23:00:00 20.6 4 Norte 8 Sudoeste 0 989.5 1.9 31
2019-06-09 22:00:00 22.5 5 Sudoeste 15 Sudoeste 0 988.6 1.1 25
2019-06-09 21:00:00 24.8 7 Sur 22 Sur 0 987.9 -0.2 23
2019-06-09 20:00:00 29 6 Sudoeste 9 Sur 0 987.6 -- 24
2019-06-09 19:00:00 30.2 7 Sur 13 Sur 0 987.5 -1.8 21
2019-06-09 18:00:00 29.5 6 Sur 14 Oeste 0 988.1 -2.3 22
2019-06-09 17:00:00 28.6 4 Sudeste 15 Oeste 0 -- -- 23
2019-06-09 16:00:00 28.4 6 Noroeste 14 Sur 0 989.3 -2.4 23
2019-06-09 15:00:00 27.6 5 Oeste 11 Sudoeste 0 990.4 -1.9 24
2019-06-09 14:00:00 26.7 6 Sudoeste 12 Sudoeste 0 991.1 -1.5 25
2019-06-09 13:00:00 26.4 5 Sur 13 Sudoeste 0 991.7 -1.3 27
2019-06-09 12:00:00 25 5 Sudeste 10 Este 0 992.3 -0.8 30
2019-06-09 11:00:00 23.4 4 Nordeste 10 Nordeste 0 992.6 -0.8 34
2019-06-09 10:00:00 21.1 3 Oeste 10 Norte 0 993 -0.3 40
2019-06-09 09:00:00 17.9 3 Norte 10 Sudeste 0 993.1 -0.5 52
2019-06-09 08:00:00 15.4 5 Sudoeste 8 Sudoeste 0 993.4 0 64
2019-06-09 07:00:00 15.5 3 Sur 9 Oeste 0 993.3 -1 58
2019-06-09 06:00:00 16.4 6 Oeste 17 Este 0 993.6 -1.2 52
2019-06-09 05:00:00 17 8 Nordeste 13 Nordeste 0 993.4 -2.3 46
2019-06-09 04:00:00 16.8 6 Norte 17 Nordeste 0 994.3 -2.1 48
2019-06-09 03:00:00 16.5 9 Nordeste 16 Nordeste 0 994.8 -1.9 48
2019-06-09 02:00:00 16.6 11 Nordeste 20 Este 0 995.7 -1.7 51
2019-06-09 01:00:00 17.5 11 Nordeste 19 Este 0 996.4 0 52
2019-06-09 00:00:00 18.4 12 Este 17 Nordeste 0 996.7 0.7 46
2019-06-08 23:00:00 19.3 5 Nordeste 12 Nordeste 0 997.4 1.9 43
2019-06-08 22:00:00 20 4 Sudoeste 9 Sudoeste 0 996.4 1.1 41
2019-06-08 21:00:00 21.4 7 Sur 18 Sur 0 996 0.6 38
2019-06-08 20:00:00 23 12 Sur 31 Sudoeste 0 995.5 -0.2 35
2019-06-08 19:00:00 24 15 Sur 32 Sudoeste 0 995.3 -- 33
2019-06-08 18:00:00 27.2 15 Sur 31 Sur 0 995.4 -1.9 31
2019-06-08 17:00:00 28.7 15 Sudoeste 28 Oeste 0 995.7 -2.6 28
2019-06-08 16:00:00 -- -- -- -- -- -- -- -- --
2019-06-08 15:00:00 26.4 8 Este 15 Norte 0 997.3 -2.3 30
2019-06-08 14:00:00 25.7 6 Sur 20 Sudeste 0 998.3 -1.7 29
2019-06-08 13:00:00 23.9 8 Sudeste 14 Sudoeste 0 999.1 -1.3 36
2019-06-08 12:00:00 22.1 4 Sudoeste 12 Sudoeste 0 999.6 -0.9 46
2019-06-08 11:00:00 20.4 4 Oeste 12 Nordeste 0 1000 0.1 51
2019-06-08 10:00:00 18.8 4 Nordeste 9 Este 0 1000.4 1 48
2019-06-08 09:00:00 16.1 4 Nordeste 9 Este 0 1000.5 1.7 50
2019-06-08 08:00:00 13.3 7 Nordeste 12 Nordeste 0 999.9 1.4 56
2019-06-08 07:00:00 10.6 6 Nordeste 11 Nordeste 0 999.4 1.4 67
2019-06-08 06:00:00 10.6 6 Nordeste 9 Nordeste 0 998.8 1.4 67
2019-06-08 05:00:00 10.8 3 Norte 6 Nordeste 0 998.5 1.4 69
2019-06-08 04:00:00 11.6 2 Norte 10 Sudeste 0 998 1 66
2019-06-08 03:00:00 12 0 Calma 7 Sudoeste 0 997.4 0.9 62
2019-06-08 02:00:00 13.8 3 Oeste 8 Este 0 997.1 1.3 53
2019-06-08 01:00:00 14.6 5 Norte 8 Norte 0 997 2.2 48
2019-06-08 00:00:00 16.3 6 Norte 15 Nordeste 0 996.5 2.7 43
2019-06-07 23:00:00 17 6 Noroeste 10 Noroeste 0 995.8 2.6 40
2019-06-07 22:00:00 19.1 4 Oeste 13 Oeste 0 994.8 2.2 34
2019-06-07 21:00:00 22.5 9 Oeste 28 Noroeste 0 993.8 1.5 26
2019-06-07 20:00:00 24.5 14 Noroeste 30 Noroeste 0 993.2 1.3 21
2019-06-07 19:00:00 25.3 14 Noroeste 33 Oeste 0 992.6 1 21
2019-06-07 18:00:00 25.4 19 Oeste 37 Oeste 0 992.3 1 20
2019-06-07 17:00:00 25.3 21 Oeste 39 Noroeste 0 991.9 0.7 21
2019-06-07 16:00:00 25.2 21 Oeste 39 Oeste 0 991.6 0.5 23
2019-06-07 15:00:00 24.7 19 Oeste 41 Oeste 0 991.3 0.6 22
2019-06-07 14:00:00 23.7 18 Oeste 36 Noroeste 0 991.2 1.1 32
2019-06-07 13:00:00 22.7 19 Oeste 39 Oeste 0 991.1 2.2 34
2019-06-07 12:00:00 21.3 22 Oeste 41 Oeste 0 990.7 2.6 45
2019-06-07 11:00:00 19.3 21 Noroeste 43 Noroeste 0 990.1 2.8 61
2019-06-07 10:00:00 20.6 9 Sudoeste 16 Sudoeste 0 988.9 1.7 62
2019-06-07 09:00:00 18.5 11 Nordeste 19 Este 0 988.1 1.4 68
2019-06-07 08:00:00 16.1 9 Nordeste 17 Nordeste 0 987.3 0.2 75
2019-06-07 07:00:00 13.6 7 Nordeste 20 Este 0 987.2 0 84
2019-06-07 06:00:00 13.9 11 Nordeste 19 Este 0 986.7 -0.4 82
2019-06-07 05:00:00 14 10 Nordeste 20 Nordeste 0 987.1 -0.4 81
2019-06-07 04:00:00 14.6 9 Nordeste 20 Nordeste 0 987.2 -0.6 77
2019-06-07 03:00:00 15.2 13 Nordeste 24 Este 0 987.1 -0.6 72
2019-06-07 02:00:00 15.7 13 Nordeste 26 Nordeste 0 987.5 -0.1 71
2019-06-07 01:00:00 16 12 Nordeste 27 Nordeste 0 987.8 0.8 68
2019-06-07 00:00:00 17.4 11 Este 26 Este 0 987.7 0.9 61
2019-06-06 23:00:00 17.9 14 Este 27 Este 0 987.6 0.4 59
2019-06-06 22:00:00 19.3 12 Nordeste 26 Sudeste 0 987 -0.1 53
2019-06-06 21:00:00 21 18 Sudeste 42 Sudeste 0 986.8 -1 41
2019-06-06 20:00:00 23 16 Sudeste 38 Sudeste 0 987.2 -1.2 38
2019-06-06 19:00:00 24.5 17 Sudeste 37 Sur 0 987.1 -1.5 33
2019-06-06 18:00:00 24.1 17 Sudeste 36 Sudeste 0 987.8 -1.1 36
2019-06-06 17:00:00 24.7 23 Sudeste 43 Sur 0 988.4 -1.1 38
2019-06-06 16:00:00 25.2 18 Sur 36 Sur 0 988.6 -1.7 37
2019-06-06 15:00:00 25.4 18 Sur 30 Sudeste 0 988.9 -2.1 34
2019-06-06 14:00:00 24.8 7 Este 25 Sudeste 0 989.5 -2 32
2019-06-06 13:00:00 23 11 Este 20 Este 0 990.3 -1.5 39
2019-06-06 12:00:00 21 9 Nordeste 19 Este 0 991 -0.9 42
2019-06-06 11:00:00 18.9 9 Nordeste 17 Nordeste 0 991.5 -0.2 47
2019-06-06 10:00:00 16.8 7 Nordeste 12 Nordeste 0 991.8 0.2 55
2019-06-06 09:00:00 14.6 5 Este 12 Nordeste 0 991.9 0.7 64
2019-06-06 08:00:00 12.4 6 Nordeste 11 Nordeste 0 991.7 1 71
2019-06-06 07:00:00 10.7 6 Nordeste 9 Norte 0 991.6 1.1 77
2019-06-06 06:00:00 11.2 4 Norte 8 Oeste 0 991.2 0.8 75
2019-06-06 05:00:00 12.2 3 Oeste 9 Oeste 0 990.7 0.7 70
2019-06-06 04:00:00 11.6 3 Sur 8 Oeste 0 990.5 0.7 70
2019-06-06 03:00:00 12.1 6 Oeste 12 Sudoeste 0 990.4 0.9 64
2019-06-06 02:00:00 12.6 7 Sudoeste 12 Sudoeste 0 990 1.4 64
2019-06-06 01:00:00 14.2 8 Oeste 25 Sudoeste 0 989.8 1.9 57
2019-06-06 00:00:00 14.9 9 Sudoeste 25 Oeste 0 989.5 2.4 54
2019-06-05 23:00:00 16.5 13 Oeste 28 Oeste 0 988.6 1.9 47
2019-06-05 22:00:00 17.3 10 Oeste 37 Oeste 0 987.9 1.7 46
2019-06-05 21:00:00 18.9 23 Oeste 49 Oeste 0 987.1 1.6 41
2019-06-05 20:00:00 20.5 26 Oeste 49 Oeste 0 986.7 1.1 39
2019-06-05 19:00:00 21.2 27 Oeste 58 Oeste 0 986.2 0.6 40
2019-06-05 18:00:00 22.3 24 Oeste 49 Oeste 0 985.5 0.2 38
2019-06-05 17:00:00 22.2 29 Oeste 51 Noroeste 0 985.6 0.2 39
2019-06-05 16:00:00 22.2 27 Oeste 50 Oeste 0 985.6 1 39
2019-06-05 15:00:00 21.1 25 Oeste 40 Oeste 0.2 985.3 0.8 52
2019-06-05 14:00:00 21.2 18 Oeste 31 Oeste 0 985.4 1.2 55
2019-06-05 13:00:00 20.3 12 Oeste 25 Sudoeste 0 984.6 0.7 60
2019-06-05 12:00:00 17.9 15 Sudoeste 28 Oeste 0 984.5 1.2 64
2019-06-05 11:00:00 16.5 12 Sudoeste 18 Sudoeste 0 984.2 1 68
2019-06-05 10:00:00 16.9 6 Sudoeste 15 Sudoeste 0 983.9 0.8 70
2019-06-05 09:00:00 18.3 9 Sudoeste 17 Sudoeste 0 983.3 0.3 66
2019-06-05 08:00:00 17.2 4 Nordeste 11 Norte 0 983.2 0.2 77
2019-06-05 07:00:00 15.9 6 Norte 10 Nordeste 0 983.1 -0.5 80
2019-06-05 06:00:00 16.1 5 Norte 12 Nordeste 0 983 -1.1 78
2019-06-05 05:00:00 16.7 8 Nordeste 17 Nordeste 0 983 -1.2 73
2019-06-05 04:00:00 17.5 9 Nordeste 22 Este 0 983.6 -1 68
2019-06-05 03:00:00 18.3 13 Este 31 Nordeste 0 984.1 -0.3 60
2019-06-05 02:00:00 18.5 17 Este 27 Nordeste 0 984.2 -0.2 54
2019-06-05 01:00:00 19.3 13 Nordeste 23 Este 0 984.6 0.8 48
2019-06-05 00:00:00 20.1 13 Este 27 Este 0 984.4 0.7 42
2019-06-04 23:00:00 21.6 17 Este 29 Este 0 984.4 0.8 42
2019-06-04 22:00:00 22.4 14 Este 28 Este 0 983.8 0.7 41
2019-06-04 21:00:00 25.3 13 Sudeste 26 Este 0 983.7 0.2 31
2019-06-04 20:00:00 27.6 12 Sudeste 31 Sur 0 983.6 -0.5 29
2019-06-04 19:00:00 30.5 18 Sur 35 Sudeste 0 983.1 -1.9 27
2019-06-04 18:00:00 32.2 12 Sur 26 Sur 0 983.5 -2.3 27
2019-06-04 17:00:00 31.9 14 Este -- -- -- 984.1 -2.5 31
2019-06-04 16:00:00 31.7 11 Este 21 Este 0 985 -2.5 29
2019-06-04 15:00:00 31 9 Este 22 Este 0 985.8 -2.4 30
2019-06-04 14:00:00 29.7 8 Este 22 Sudeste 0 986.6 -1.8 30
2019-06-04 13:00:00 28.2 7 Nordeste 17 Este 0 987.5 -1.3 32
2019-06-04 12:00:00 26.6 5 Sur 15 Sudoeste 0 988.2 -0.4 35
2019-06-04 11:00:00 24.8 6 Nordeste 12 Este 0 988.4 -0.2 38
2019-06-04 10:00:00 22.4 7 Nordeste 15 Nordeste 0 988.8 0.4 46
2019-06-04 09:00:00 20.1 9 Nordeste 16 Nordeste 0 988.6 0.1 48
2019-06-04 08:00:00 18.3 6 Nordeste 21 Nordeste 0 988.6 -0.2 53
2019-06-04 07:00:00 15.7 14 Nordeste 24 Nordeste 0 988.4 -0.9 59
2019-06-04 06:00:00 15.5 9 Nordeste 22 Nordeste 0 988.5 -1.3 62
2019-06-04 05:00:00 15.4 10 Nordeste 18 Nordeste 0 988.8 -1.5 63
2019-06-04 04:00:00 15.8 13 Nordeste 20 Nordeste 0 989.3 -1.6 62
2019-06-04 03:00:00 16.3 10 Nordeste 19 Nordeste 0 989.8 -1.3 59
2019-06-04 02:00:00 17.1 11 Nordeste 19 Nordeste 0 990.3 -0.8 54
2019-06-04 01:00:00 17.8 9 Nordeste 17 Nordeste 0 990.9 0.4 52
2019-06-04 00:00:00 18.9 9 Nordeste 15 Nordeste 0 991.1 1 48
2019-06-03 23:00:00 20.7 8 Nordeste 14 Norte 0 991.1 1.2 47
2019-06-03 22:00:00 23.8 7 Este 18 Sudeste 0 990.5 0.5 34
2019-06-03 21:00:00 24.6 10 Sur 23 Sur 0 990.1 -0.4 39
2019-06-03 20:00:00 28.3 11 Sur 22 Sur 0 989.9 -0.6 33
2019-06-03 19:00:00 30.1 12 Sur 31 Sur 0 990 -0.8 28
2019-06-03 18:00:00 31 17 Sur 33 Sur 0 990.5 -1.1 26
2019-06-03 17:00:00 31.2 16 Sur 32 Sur 0 990.5 -1.6 27
2019-06-03 16:00:00 32 15 Sur 27 Sur 0 990.8 -2 26
2019-06-03 15:00:00 32 11 Sur 17 Sur 0 991.6 -1.5 24
2019-06-03 14:00:00 29 8 Este 18 Norte 0 992.1 -0.9 26
2019-06-03 13:00:00 27.8 6 Nordeste 12 Nordeste 0 992.8 -0.4 29
2019-06-03 12:00:00 26.8 5 Este 15 Este 0 993.1 -0.3 28
2019-06-03 11:00:00 25.4 8 Nordeste 17 Nordeste 0 993 -0.3 36
2019-06-03 10:00:00 23.2 10 Nordeste 19 Norte 0 993.2 0 37
2019-06-03 09:00:00 20.2 11 Nordeste -- -- -- 993.4 0.3 44
2019-06-03 08:00:00 16.8 8 Nordeste 18 Nordeste 0 993.3 -0.1 53
2019-06-03 07:00:00 15.1 9 Nordeste 15 Nordeste 0 993.2 -0.6 57
2019-06-03 06:00:00 14.6 10 Nordeste 17 Nordeste 0 993.1 -1.2 57
2019-06-03 05:00:00 15 9 Nordeste 16 Nordeste 0 993.4 -0.9 55
2019-06-03 04:00:00 16.5 8 Nordeste 15 Nordeste 0 993.8 -0.4 48
2019-06-03 03:00:00 17.3 9 Norte 17 Nordeste 0 994.3 0.2 45
2019-06-03 02:00:00 17.9 8 Nordeste 16 Nordeste 0 994.3 0.5 45
2019-06-03 01:00:00 18.7 8 Norte 11 Norte 0 994.2 1.3 43
2019-06-03 00:00:00 20 6 Norte 12 Nordeste 0 994.1 1.8 39
2019-06-02 23:00:00 20.8 8 Nordeste 14 Nordeste 0 993.8 1.9 40
2019-06-02 22:00:00 23.2 6 Sudeste 20 Sur 0 992.9 1.5 32
2019-06-02 21:00:00 25.7 11 Sur 25 Sur 0 992.3 0.9 30
2019-06-02 20:00:00 29.2 15 Sur 25 Sur 0 991.9 0.2 27
2019-06-02 19:00:00 31 12 Sur 32 Sudoeste 0 991.4 -0.9 25
2019-06-02 18:00:00 32.1 17 Sudoeste 33 Sudoeste 0 991.4 -1.5 25
2019-06-02 17:00:00 33.1 13 Sudoeste -- -- -- 991.7 -2.1 23
2019-06-02 16:00:00 32.8 14 Sudoeste 28 Sudoeste 0 992.3 -2.4 22
2019-06-02 15:00:00 32.5 10 Sudoeste 21 Oeste 0 992.9 -2.2 22
2019-06-02 14:00:00 30.6 5 Sudeste 14 Oeste 0 993.8 -1.6 27
2019-06-02 13:00:00 29 5 Sur 15 Sudeste 0 994.7 -- 27
2019-06-02 12:00:00 27.6 6 Sur 12 Sudoeste 0 995.1 -0.6 29
2019-06-02 11:00:00 25.1 4 Sudeste 9 Este 0 995.4 0 38
2019-06-02 10:00:00 21.6 5 Norte 12 Norte 0 -- -- 47
2019-06-02 09:00:00 19 9 Norte 15 Nordeste 0 995.7 0.2 54
2019-06-02 08:00:00 16.7 6 Nordeste 12 Norte 0 995.4 -0.1 62
2019-06-02 07:00:00 14.1 5 Nordeste 13 Nordeste 0 995.5 -0.5 72
2019-06-02 06:00:00 15.1 6 Nordeste 13 Nordeste 0 995.5 -0.6 65
2019-06-02 05:00:00 16.3 9 Nordeste 15 Norte 0 995.5 -0.8 58
2019-06-02 04:00:00 16.6 9 Norte 13 Norte 0 996 -0.4 59
2019-06-02 03:00:00 16.9 9 Nordeste 12 Norte 0 996.1 -0.3 59
2019-06-02 02:00:00 17.8 8 Nordeste 12 Nordeste 0 996.3 0.2 55
2019-06-02 01:00:00 18.6 8 Nordeste 13 Nordeste 0 996.4 1.1 53
2019-06-02 00:00:00 20.1 6 Nordeste 17 Este 0 996.4 1.6 49
2019-06-01 23:00:00 21.8 5 Sudeste 14 Sudeste 0 996.1 1.9 41
2019-06-01 22:00:00 23.3 7 Sur 26 Sur 0 995.3 -- 39
2019-06-01 21:00:00 25.6 8 Sur 26 Sur 0 994.8 0.6 35
2019-06-01 20:00:00 28.9 13 Sur -- -- -- 994.2 -0.4 31
2019-06-01 19:00:00 -- -- -- -- -- -- -- -- --
2019-06-01 18:00:00 31.5 13 Sudoeste 30 Sur 0 994.2 -1.9 28
2019-06-01 17:00:00 32 6 Noroeste 14 Oeste 0 994.6 -2.3 23
2019-06-01 16:00:00 31.6 8 Sudoeste 16 Oeste 0 -- -- 22
2019-06-01 15:00:00 30.7 5 Sudoeste 15 Oeste 0 996.1 -1.9 26
2019-06-01 14:00:00 30.2 5 Sur 13 Sudoeste 0 996.9 -1.4 27
2019-06-01 13:00:00 28.9 6 Sudoeste 12 Este 0 997.6 -- 30
2019-06-01 12:00:00 26.8 4 Nordeste 14 Este 0 998 -0.7 34
2019-06-01 11:00:00 24.3 8 Este 16 Este 0 998.3 -0.3 45
2019-06-01 10:00:00 21.4 8 Nordeste 18 Nordeste 0 -- -- 51
2019-06-01 09:00:00 18.6 8 Nordeste 16 Nordeste 0 998.7 0.7 60
2019-06-01 08:00:00 15.8 8 Nordeste 14 Nordeste 0 998.6 0.4 72
2019-06-01 07:00:00 13.8 8 Nordeste 13 Nordeste 0 998.1 -0.2 79
2019-06-01 06:00:00 14.6 9 Nordeste 15 Nordeste 0 998 -0.3 75
2019-06-01 05:00:00 15 7 Nordeste 16 Nordeste 0 998.2 -0.5 72
2019-06-01 04:00:00 15.4 8 Nordeste 16 Nordeste 0 998.3 -0.7 70
2019-06-01 03:00:00 16 6 Nordeste 12 Nordeste 0 998.3 -0.5 68
2019-06-01 02:00:00 16.9 8 Nordeste 12 Nordeste 0 998.7 0 65
2019-06-01 01:00:00 17.9 7 Nordeste 12 Este 0 999 1.1 62
2019-06-01 00:00:00 19.3 6 Nordeste 12 Nordeste 0 998.8 1.4 57
2019-05-31 23:00:00 19.9 4 Sur 15 Sur 0 998.7 1.7 56
2019-05-31 22:00:00 21.7 9 Sur -- -- -- 997.9 1.1 51
2019-05-31 21:00:00 24.1 12 Sur 26 Sur 0 997.4 0.4 44
2019-05-31 20:00:00 27.4 13 Sur 27 Sur 0 997 -0.3 36
2019-05-31 19:00:00 29.8 10 Sur 18 Sur 0 996.8 -0.9 32
2019-05-31 18:00:00 30.2 12 Sur 28 Sudoeste 0 997 -1.4 29
2019-05-31 17:00:00 30.6 13 Sur 21 Sur 0 997.3 -1.8 29
2019-05-31 16:00:00 30.1 5 Sur 18 Sur 0 997.7 -2.1 28
2019-05-31 15:00:00 28.8 9 Sudoeste 19 Sudoeste 0 998.4 -1.9 29
2019-05-31 14:00:00 27.3 8 Oeste 15 Oeste 0 999.1 -1.5 34
2019-05-31 13:00:00 26.1 5 Este 13 Sudeste 0 999.8 -1.2 36
2019-05-31 12:00:00 24.8 5 Sudoeste 14 Sudeste 0 1000.3 -0.6 39
2019-05-31 11:00:00 22.7 5 Sudeste 12 Sudeste 0 1000.6 -- 39
2019-05-31 10:00:00 20.2 7 Nordeste 12 Este 0 1001 0.5 48
2019-05-31 09:00:00 17.2 6 Nordeste 12 Nordeste 0 1000.9 0.8 61
2019-05-31 08:00:00 14.7 5 Nordeste 12 Nordeste 0 -- -- 72
2019-05-31 07:00:00 12.6 8 Nordeste 15 Nordeste 0 1000.5 0.3 80
2019-05-31 06:00:00 12.9 9 Nordeste 15 Nordeste 0 1000.1 -0.5 79
2019-05-31 05:00:00 13.5 9 Nordeste 14 Norte 0 1000.1 -0.6 78
2019-05-31 04:00:00 14 10 Nordeste 14 Norte 0 1000.2 -0.6 76
2019-05-31 03:00:00 14.7 9 Nordeste 16 Nordeste 0 1000.6 0 72
2019-05-31 02:00:00 15.4 10 Nordeste 18 Nordeste 0 1000.7 0.6 68
2019-05-31 01:00:00 16.6 11 Nordeste 17 Nordeste 0 1000.8 1.9 64
2019-05-31 00:00:00 17.5 9 Nordeste 18 Nordeste 0 1000.6 2.6 63
2019-05-30 23:00:00 20 4 Norte 14 Sur 0 1000.1 -- 56
2019-05-30 22:00:00 21.5 9 Sur 19 Sur 0 998.9 -- 51
2019-05-30 21:00:00 24.6 8 Sur 21 Sur 0 998 0 44
2019-05-30 20:00:00 28.7 5 Oeste -- -- -- -- -- 26
2019-05-30 19:00:00 -- -- -- -- -- -- -- -- --
2019-05-30 18:00:00 28.4 8 Oeste 18 Sur 0 998 -1.7 28
2019-05-30 17:00:00 27.9 7 Sudoeste 21 Sudoeste 0 998.7 -1.7 30
2019-05-30 16:00:00 27 11 Oeste 22 Sudoeste 0 999.2 -1.8 31
2019-05-30 15:00:00 25.8 7 Oeste 22 Sudoeste 0 999.7 -1.7 32
2019-05-30 14:00:00 24 7 Sudoeste 18 Sudoeste 0 1000.4 -1.3 39
2019-05-30 13:00:00 22.4 8 Sudoeste 19 Sudoeste 0 1001 -0.8 43
2019-05-30 12:00:00 20.6 8 Sudoeste 17 Sudoeste 0 1001.4 -0.5 49
2019-05-30 11:00:00 18.7 7 Oeste 14 Sudoeste 0 1001.7 0.3 54
2019-05-30 10:00:00 16.4 4 Sudoeste 10 Sur 0 1001.8 0.7 60
2019-05-30 09:00:00 14.7 6 Sudoeste 10 Sudoeste 0 1001.9 1.4 64
2019-05-30 08:00:00 12.6 3 Oeste 5 Oeste 0 1001.4 1.1 73
2019-05-30 07:00:00 9.5 2 Sudeste 5 Sur 0 1001.1 0.9 88
2019-05-30 06:00:00 10 2 Oeste 4 Sur 0 1000.5 0.5 90
2019-05-30 05:00:00 10.8 3 Nordeste 5 Norte 0 1000.3 0.2 88
2019-05-30 04:00:00 12 5 Norte 7 Norte 0 1000.2 0.5 83
2019-05-30 03:00:00 12.6 6 Nordeste 8 Nordeste 0 1000 1 78
2019-05-30 02:00:00 14 4 Norte 9 Sur 0 1000.1 1.9 65
2019-05-30 01:00:00 14.5 6 Sur 11 Sur 0 999.7 -- 61
2019-05-30 00:00:00 16.1 -- -- 11 Sudoeste 0 999 2.9 57
2019-05-29 23:00:00 17.4 6 Sudoeste 16 Sudoeste 0 998.2 2.9 52
2019-05-29 22:00:00 -- -- -- -- -- -- -- -- --
2019-05-29 21:00:00 21.8 9 Oeste 25 Oeste 0 996.1 1.2 39
2019-05-29 20:00:00 24.9 14 Oeste 28 Noroeste 0 995.3 0.2 30
2019-05-29 19:00:00 25.9 14 Oeste 25 Oeste 0 994.8 -0.8 24
2019-05-29 18:00:00 25.5 17 Sudoeste 33 Sudoeste 0 994.9 -1.1 23
2019-05-29 17:00:00 25.2 15 Sudoeste 30 Sudoeste 0 995.1 -1.3 23
2019-05-29 16:00:00 24.8 15 Oeste 30 Oeste 0 995.6 -1.4 22
2019-05-29 15:00:00 23.7 17 Oeste 32 Sudoeste 0 996 -1.3 24
2019-05-29 14:00:00 22.4 17 Sudoeste 29 Sudoeste 0 996.4 -1 27
2019-05-29 13:00:00 21.4 14 Oeste 26 Oeste 0 997 -0.8 29
2019-05-29 12:00:00 20.1 13 Oeste 24 Oeste 0 997.3 -0.3 40
2019-05-29 11:00:00 17.5 9 Oeste 18 Oeste 0 997.4 0.4 47
2019-05-29 10:00:00 15 10 Sudoeste 18 Sudoeste 0 997.8 1.2 58
2019-05-29 09:00:00 13 9 Sudoeste 17 Sudoeste 0 997.6 1.4 66
2019-05-29 08:00:00 11.2 9 Sudoeste 15 Sudoeste 0 997 1.3 75
2019-05-29 07:00:00 9 6 Sudoeste 12 Sudoeste 0 996.6 1.2 82
2019-05-29 06:00:00 9.1 6 Sudoeste 14 Sudoeste 0 996.2 1.2 79
2019-05-29 05:00:00 9.7 7 Sudoeste 18 Oeste 0 995.7 1.6 77
2019-05-29 04:00:00 11.2 10 Oeste 18 Sudoeste 0 995.4 1.6 68
2019-05-29 03:00:00 11.6 8 Sudoeste 31 Noroeste 0 995 2.4 67
2019-05-29 02:00:00 13.3 19 Noroeste 38 Noroeste 0 994.1 2.1 57
2019-05-29 01:00:00 13.9 23 Noroeste 41 Oeste 0 993.8 2.8 53
2019-05-29 00:00:00 14.8 29 Noroeste 49 Noroeste 0 992.6 -- 49
2019-05-28 23:00:00 15 14 Sudoeste 37 Sudoeste 0 992 2.3 50
2019-05-28 22:00:00 16.3 19 Sudoeste 36 Oeste 0 991 1.6 46
2019-05-28 21:00:00 17.9 24 Oeste 60 Oeste 0 -- -- 38
2019-05-28 20:00:00 20.2 28 Oeste -- -- -- 989.7 0.4 36
2019-05-28 19:00:00 22.3 28 Oeste 53 Oeste 0 989.4 0 35
2019-05-28 18:00:00 23.6 28 Oeste 48 Oeste 0 989.3 -0.2 31
2019-05-28 17:00:00 23.9 27 Oeste 44 Sudoeste 0 989.3 -0.8 32
2019-05-28 16:00:00 24.3 22 Oeste 42 Sudoeste 0 989.4 -1.4 32
2019-05-28 15:00:00 23.9 22 Oeste 37 Sudoeste 0 989.5 -1.5 33
2019-05-28 14:00:00 22.8 19 Oeste 31 Oeste 0 990.1 -1.1 36
2019-05-28 13:00:00 21.2 17 Oeste 30 Oeste 0 990.8 -0.5 42
2019-05-28 12:00:00 20 15 Oeste 28 Oeste 0 991 -0.1 44
2019-05-28 11:00:00 17.8 12 Oeste 27 Sudoeste 0 991.2 0.6 53
2019-05-28 10:00:00 16 15 Oeste 30 Sudoeste 0 991.3 1.4 57
2019-05-28 09:00:00 14.2 13 Sudoeste 26 Sudoeste 0 991.1 1.8 62
2019-05-28 08:00:00 13 14 Sudoeste 25 Sudoeste 0 990.6 1.4 65
2019-05-28 07:00:00 11.3 12 Sudoeste 18 Sudoeste 0 989.9 0.8 73
2019-05-28 06:00:00 11.8 8 Sudoeste 15 Sudoeste 0 989.3 0.3 73
2019-05-28 05:00:00 12.5 8 Sudoeste 19 Sudoeste 0 989.2 0.2 71
2019-05-28 04:00:00 13.6 10 Sudoeste 26 Sudoeste 0 989.1 0.4 64
2019-05-28 03:00:00 14.4 16 Sudoeste 29 Oeste 0 989 0.9 59
2019-05-28 02:00:00 15.2 12 Sudoeste 32 Oeste 0 989 1.4 63
2019-05-28 01:00:00 16.4 15 Sudoeste 28 Sudoeste 0 988.7 1.9 66
2019-05-28 00:00:00 18.2 13 Sudoeste 26 Sudoeste 0 988.1 2.4 61
2019-05-27 23:00:00 19.4 14 Sudoeste 27 Oeste 0 987.6 1.8 57
2019-05-27 22:00:00 20.8 12 Oeste 33 Oeste 0 986.8 0.9 53
2019-05-27 21:00:00 23.2 18 Oeste 33 Oeste 0 985.7 -0.4 48
2019-05-27 20:00:00 25.3 17 Oeste 32 Oeste 0 985.8 -0.9 44
2019-05-27 19:00:00 27 17 Oeste 28 Oeste 0 985.9 -1.6 39
2019-05-27 18:00:00 27 13 Oeste 25 Oeste 0 986.1 -2.2 37
2019-05-27 17:00:00 26.2 14 Oeste 25 Noroeste 0 986.7 -2.3 41
2019-05-27 16:00:00 25 11 Oeste 27 Oeste 0 987.5 -2.2 43
2019-05-27 15:00:00 23.2 13 Oeste 25 Sudoeste 0 988.3 -1.9 46
2019-05-27 14:00:00 23.1 15 Oeste 23 Oeste 0 989 -1.6 47
2019-05-27 13:00:00 21.3 12 Oeste 24 Oeste 0 989.7 -1 54
2019-05-27 12:00:00 19.7 16 Oeste 26 Sudoeste 0 990.2 -0.7 54
2019-05-27 11:00:00 17.8 13 Sudoeste 23 Sudoeste 0 990.6 -0.2 62
2019-05-27 10:00:00 16.6 9 Sudoeste 25 Sudoeste 0 990.7 0 65
2019-05-27 09:00:00 14.8 11 Oeste 21 Oeste 0 990.9 0.4 73
2019-05-27 08:00:00 12.6 8 Sudoeste 15 Sudoeste 0 990.8 0.1 84
2019-05-27 07:00:00 10.6 5 Sudoeste 8 Sudoeste 0 990.7 -0.4 89
2019-05-27 06:00:00 10.9 4 Sudoeste 9 Sudoeste 0 990.5 -0.8 87
2019-05-27 05:00:00 11.5 4 Sudoeste 12 Sudoeste 0 990.7 -0.8 84
2019-05-27 04:00:00 12.5 8 Sudoeste 21 Sudoeste 0 991.1 -0.4 81
2019-05-27 03:00:00 13.6 10 Sudoeste 22 Sudoeste 0 991.3 -0.1 76
2019-05-27 02:00:00 14.5 14 Sudoeste 23 Sudoeste 0 991.5 0.3 73
2019-05-27 01:00:00 15.6 13 Sudoeste 21 Oeste 0 991.5 1 69
2019-05-27 00:00:00 17.5 14 Oeste 25 Oeste 0 991.4 1.4 60
2019-05-26 23:00:00 19.3 15 Oeste 27 Sudoeste 0 991.2 1.4 55
2019-05-26 22:00:00 20.7 14 Oeste 28 Oeste 0 990.5 0.4 51
2019-05-26 21:00:00 22.2 13 Oeste 24 Noroeste 0 990 -0.3 48
2019-05-26 20:00:00 25 7 Oeste 18 Oeste 0 989.8 -1 34
2019-05-26 19:00:00 25.4 10 Oeste 25 Sudoeste 0 990.1 -1.4 31
2019-05-26 18:00:00 26.2 12 Oeste 29 Oeste 0 990.3 -1.7 31
2019-05-26 17:00:00 26.1 13 Oeste 28 Noroeste 0 990.8 -1.9 33
2019-05-26 16:00:00 25.1 14 Oeste 26 Noroeste 0 991.5 -2.1 35
2019-05-26 15:00:00 24.1 17 Oeste 33 Noroeste 0 992 -2.1 35
2019-05-26 14:00:00 22.8 18 Oeste 38 Oeste 0 992.7 -1.8 42
2019-05-26 13:00:00 21.2 15 Oeste 26 Oeste 0 993.6 -1.2 50
2019-05-26 12:00:00 19.6 13 Oeste 26 Oeste 0 994.1 -1 56
2019-05-26 11:00:00 17.3 14 Sudoeste 25 Oeste 0 994.5 -0.5 61
2019-05-26 10:00:00 15.6 14 Oeste 26 Sudoeste 0 994.8 -0.1 66
2019-05-26 09:00:00 14 10 Sudoeste 22 Sudoeste 0 995.1 0.7 73
2019-05-26 08:00:00 11.4 8 Sudoeste 11 Sudoeste 0 995 0.6 87
2019-05-26 07:00:00 10.6 7 Sudoeste 15 Sudoeste 0 994.9 0.5 88
2019-05-26 06:00:00 11.3 10 Sudoeste -- -- -- 994.4 0 85
2019-05-26 05:00:00 11.8 13 Sudoeste 23 Sudoeste 0 994.4 -0.1 83
2019-05-26 04:00:00 12.2 11 Sudoeste 27 Sudoeste 0 994.4 0 82
2019-05-26 03:00:00 13.2 16 Sudoeste 25 Sudoeste 0 994.4 -- 78
2019-05-26 02:00:00 13.3 13 Sudoeste 26 Sudoeste 0 994.5 0.7 79
2019-05-26 01:00:00 14.4 13 Sudoeste -- -- -- 994.4 1.6 77
2019-05-26 00:00:00 16.2 13 Sudoeste 25 Oeste 0 -- -- 67
2019-05-25 23:00:00 17.7 13 Oeste 24 Oeste 0 993.8 1.8 63
2019-05-25 22:00:00 17.1 9 Sudoeste 15 Sudoeste 0 992.8 -- 79
2019-05-25 21:00:00 18.2 9 Sudoeste 18 Sudoeste 0 992.4 0.6 71
2019-05-25 20:00:00 20.7 8 Sudoeste 24 Oeste 0 992 -0.2 57
2019-05-25 19:00:00 20.7 11 Oeste 24 Oeste 0 -- -- 59
2019-05-25 18:00:00 22.1 4 Este 12 Nordeste 0 991.8 -1.1 58
2019-05-25 17:00:00 22.6 8 Nordeste 12 Nordeste 0 992.2 -1 50
2019-05-25 16:00:00 23.2 6 Noroeste 14 Oeste 0 992.3 -1.3 45
2019-05-25 15:00:00 22.6 8 Oeste 23 Oeste 0 992.9 -1 51
2019-05-25 14:00:00 22.7 10 Oeste 22 Sudoeste 0 993.2 -0.7 53
2019-05-25 13:00:00 21.1 13 Oeste 22 Oeste 0 993.6 -0.1 57
2019-05-25 12:00:00 19.6 9 Oeste 19 Sudoeste 0 993.9 0.4 64
2019-05-25 11:00:00 17.9 9 Sudoeste 17 Sudoeste 0 993.9 1.1 73
2019-05-25 10:00:00 15.2 9 Sudoeste 17 Sudoeste 0 993.7 1.4 81
2019-05-25 09:00:00 14.1 10 Sudoeste 16 Sudoeste 0 993.5 1.4 83
2019-05-25 08:00:00 13.1 8 Sudoeste 15 Sudoeste 0 992.8 1 91
2019-05-25 07:00:00 12.8 9 Sudoeste 13 Sudoeste 0 992.3 0.5 93
2019-05-25 06:00:00 12.9 7 Sur 13 Sudoeste 0 992.1 -- 94
2019-05-25 05:00:00 13.2 8 Sudoeste 13 Sudoeste 0 991.8 -0.2 93
2019-05-25 04:00:00 14.2 6 Sudoeste 9 Sudoeste 0 991.8 -0.5 96
2019-05-25 03:00:00 -- -- -- -- -- -- -- -- --
2019-05-25 02:00:00 14.2 2 Sudeste 5 Norte 0 992 -0.2 94
2019-05-25 01:00:00 14.7 2 Noroeste 6 Oeste 0 992.3 0.6 92
2019-05-25 00:00:00 15 2 Norte 4 Nordeste 0 992.2 0.9 90
2019-05-24 23:00:00 15.5 4 Nordeste 6 Nordeste 0 992.2 1.1 86
2019-05-24 22:00:00 15.9 4 Nordeste 9 Este 0 991.7 0.8 85
2019-05-24 21:00:00 16.3 3 Nordeste 10 Nordeste 0 991.3 0.3 83
2019-05-24 20:00:00 16.5 4 Nordeste 14 Nordeste 0 991.1 0.1 82
2019-05-24 19:00:00 16.9 6 Nordeste 13 Nordeste 0 990.9 -0.5 81
2019-05-24 18:00:00 16.8 9 Nordeste 18 Este 0 991 -0.6 83
2019-05-24 17:00:00 16.6 8 Nordeste 12 Este 0 991 -0.8 87
2019-05-24 16:00:00 17.1 4 Este 13 Sudoeste 0 991.4 -0.7 85
2019-05-24 15:00:00 16.4 7 Sur 14 Sudoeste 0 991.6 -0.4 91
2019-05-24 14:00:00 15.3 9 Sudoeste 16 Oeste 0.6 991.8 -0.3 94
2019-05-24 13:00:00 14.8 9 Sudoeste 19 Sudoeste 1.2 992.1 -0.2 95
2019-05-24 12:00:00 15.2 4 Sudoeste 12 Oeste 0.8 992 0 95
2019-05-24 11:00:00 14.7 10 Oeste 20 Oeste 1.8 992.1 0.3 95
2019-05-24 10:00:00 15.1 10 Oeste 19 Sudoeste 2 992.3 1 96
2019-05-24 09:00:00 15.3 8 Sudoeste 13 Sudoeste 5 992 0.1 96
2019-05-24 08:00:00 15.4 4 Oeste 9 Oeste 1.4 991.8 0.2 95
2019-05-24 07:00:00 15.4 6 Nordeste 12 Norte 3.8 991.3 0.3 93
2019-05-24 06:00:00 16.1 4 Sudoeste 11 Oeste 1.2 991.9 0.8 93
2019-05-24 05:00:00 16.4 7 Oeste 12 Oeste 0 991.6 -0.6 92
2019-05-24 04:00:00 16.3 0 Calma 6 Noroeste 0 991 -1.4 92
2019-05-24 03:00:00 16.4 4 Norte 10 Sudeste 1.4 991.1 -1.3 92
2019-05-24 02:00:00 16.8 5 Oeste 12 Sudoeste 1 992.2 1.2 86
2019-05-24 01:00:00 17.7 4 Oeste 17 Oeste 0.8 992.4 2.2 81
2019-05-24 00:00:00 20.4 13 Oeste 26 Noroeste 0 992.4 2.4 60
2019-05-23 23:00:00 21.7 4 Este 22 Oeste 0 991 1.4 59
2019-05-23 22:00:00 22.5 7 Sudoeste 18 Sudoeste 0 990.2 -- 51
2019-05-23 21:00:00 24.3 12 Sur 21 Sur 0 990 0.2 47
2019-05-23 20:00:00 27.3 8 Sudoeste -- -- -- 989.6 -0.7 37
2019-05-23 19:00:00 -- -- -- -- -- -- -- -- --
2019-05-23 18:00:00 28.4 5 Sudoeste 11 Oeste 0 989.8 -1.6 25
2019-05-23 17:00:00 28.8 7 Noroeste 16 Oeste 0 990.3 -1.9 23
2019-05-23 16:00:00 29.3 9 Oeste 19 Oeste 0 990.7 -2.1 22
2019-05-23 15:00:00 29 8 Sudoeste 17 Sudoeste 0 991.4 -2.2 21
2019-05-23 14:00:00 27.9 6 Sudoeste 13 Sudoeste 0 992.2 -- 25
2019-05-23 13:00:00 25.9 5 Sudoeste 14 Sur 0 992.8 -1.5 30
2019-05-23 12:00:00 24 7 Sudoeste 12 Sudoeste 0 993.6 -0.7 37
2019-05-23 11:00:00 21.8 3 Oeste 12 Nordeste 0 -- -- 37
2019-05-23 10:00:00 18.9 7 Nordeste 12 Nordeste 0 994.3 0.4 47
2019-05-23 09:00:00 16 5 Nordeste 10 Nordeste 0 994.3 0.8 55
2019-05-23 08:00:00 14.2 6 Nordeste 12 Nordeste 0 994.1 0.5 59
2019-05-23 07:00:00 11.7 9 Norte 13 Nordeste 0 993.9 0.1 67
2019-05-23 06:00:00 11.7 8 Nordeste 12 Nordeste 0 993.5 -- 68
2019-05-23 05:00:00 12.3 7 Nordeste 15 Nordeste 0 993.6 -0.4 67
2019-05-23 04:00:00 12.7 8 Nordeste -- -- -- 993.8 -0.3 68
2019-05-23 03:00:00 -- -- -- -- -- -- -- -- --
2019-05-23 02:00:00 14.8 10 Nordeste 15 Nordeste 0 994 0.4 60
2019-05-23 01:00:00 15.5 8 Nordeste 14 Norte 0 994.1 1.2 58
2019-05-23 00:00:00 17.1 8 Norte 10 Nordeste 0 993.8 1.4 53
2019-05-22 23:00:00 18.4 4 Sur 10 Sudeste 0 993.6 1.7 50
2019-05-22 22:00:00 20.3 4 Sur -- -- -- 992.9 1.1 44
2019-05-22 21:00:00 23.8 4 Sur 12 Sur 0 992.4 0.4 27
2019-05-22 20:00:00 26.9 6 Noroeste 15 Noroeste 0 991.9 -0.6 17
2019-05-22 19:00:00 27.6 6 Oeste 18 Sudoeste 0 991.8 -1.3 15
2019-05-22 18:00:00 27.5 12 Oeste 21 Oeste 0 992 -1.6 19
2019-05-22 17:00:00 27.1 8 Sudoeste 20 Sudoeste 0 992.5 -1.7 19
2019-05-22 16:00:00 26.1 12 Oeste 24 Sudoeste 0 993.1 -1.7 24
2019-05-22 15:00:00 24.6 6 Oeste 17 Oeste 0 993.6 -1.6 30
2019-05-22 14:00:00 23.2 6 Sur 24 Oeste 0 994.2 -1.1 35
2019-05-22 13:00:00 21.7 8 Sudoeste 17 Sudoeste 0 994.8 -0.6 40
2019-05-22 12:00:00 20.1 8 Sudoeste 17 Sudoeste 0 995.2 0 44
2019-05-22 11:00:00 18.3 9 Sudoeste 17 Sudoeste 0 995.3 0.4 53
2019-05-22 10:00:00 16.2 8 Sudoeste 16 Sudoeste 0 995.4 0.8 65
2019-05-22 09:00:00 15.2 4 Sudoeste 8 Sudoeste 0 995.2 1.1 71
2019-05-22 08:00:00 12.5 2 Sudoeste 4 Sudoeste 0 994.9 1.1 85
2019-05-22 07:00:00 10.1 3 Nordeste 8 Norte 0 994.6 0.9 90
2019-05-22 06:00:00 11.4 6 Norte 9 Nordeste 0 994.1 0.6 87
2019-05-22 05:00:00 11.8 6 Nordeste 10 Norte 0 993.8 0.5 85
2019-05-22 04:00:00 12.6 6 Nordeste 10 Norte 0 993.7 0.5 82
2019-05-22 03:00:00 13.4 5 Nordeste 14 Nordeste 0 993.5 0.4 78
2019-05-22 02:00:00 14.4 8 Nordeste 17 Nordeste 0 993.3 0.8 74
2019-05-22 01:00:00 15.3 9 Nordeste 18 Nordeste 0 993.2 -- 68
2019-05-22 00:00:00 16.1 8 Nordeste 17 Nordeste 0 993.1 2.2 64